createdAt,value
2019-02-02T00:01:42.993Z,98158.09
2019-02-02T00:04:10.907Z,98159.25
2019-02-02T00:06:38.825Z,98159.05
2019-02-02T00:09:08.038Z,98149.87
2019-02-02T00:11:36.130Z,98154.80
2019-02-02T00:14:05.114Z,98149.08
2019-02-02T00:16:33.229Z,98139.38
2019-02-02T00:19:01.292Z,98135.43
2019-02-02T00:21:29.255Z,98139.22
2019-02-02T00:23:57.304Z,98139.54
2019-02-02T00:26:25.266Z,98133.13
2019-02-02T00:28:53.341Z,98127.88
2019-02-02T00:31:21.247Z,98129.84
2019-02-02T00:33:49.827Z,98131.66
2019-02-02T00:36:17.736Z,98121.31
2019-02-02T00:38:46.657Z,98114.38
2019-02-02T00:41:14.575Z,98111.94
2019-02-02T00:43:42.449Z,98102.23
2019-02-02T00:46:12.426Z,98119.01
2019-02-02T00:48:40.329Z,98116.36
2019-02-02T00:51:08.231Z,98115.70
2019-02-02T00:53:36.958Z,98108.48
2019-02-02T00:56:05.205Z,98117.66
2019-02-02T00:58:33.129Z,98119.48
2019-02-02T01:01:01.103Z,98125.40
2019-02-02T01:03:29.276Z,98112.27
2019-02-02T01:05:57.270Z,98108.33
2019-02-02T01:08:25.333Z,98103.72
2019-02-02T01:10:53.384Z,98102.25
2019-02-02T01:13:21.602Z,98105.36
2019-02-02T01:15:49.527Z,98111.06
2019-02-02T01:18:17.542Z,98116.52
2019-02-02T01:20:45.526Z,98114.20
2019-02-02T01:23:13.607Z,98117.64
2019-02-02T01:25:42.055Z,98114.67
2019-02-02T01:28:10.180Z,98102.52
2019-02-02T01:30:38.181Z,98093.33
2019-02-02T01:33:06.258Z,98096.47
2019-02-02T01:35:34.142Z,98095.16
2019-02-02T01:38:02.337Z,98106.14
2019-02-02T01:40:30.288Z,98106.31
2019-02-02T01:42:58.399Z,98111.70
2019-02-02T01:45:26.638Z,98115.96
2019-02-02T01:47:55.557Z,98107.95
2019-02-02T01:50:24.982Z,98096.47
2019-02-02T01:52:53.103Z,98099.57
2019-02-02T01:55:21.312Z,98090.05
2019-02-02T01:57:49.364Z,98083.65
2019-02-02T02:00:22.953Z,98076.44
2019-02-02T02:02:53.443Z,98079.06
2019-02-02T02:05:21.502Z,98074.80
2019-02-02T02:07:49.982Z,98075.45
2019-02-02T02:10:18.469Z,98068.58
2019-02-02T02:12:46.417Z,98065.46
2019-02-02T02:15:15.432Z,98072.70
2019-02-02T02:17:44.345Z,98068.28
2019-02-02T02:20:13.139Z,98072.20
2019-02-02T02:22:41.615Z,98070.88
2019-02-02T02:25:12.109Z,98066.97
2019-02-02T02:27:40.177Z,98071.06
2019-02-02T02:30:10.809Z,98071.59
2019-02-02T02:32:38.729Z,98076.35
2019-02-02T02:35:06.911Z,98071.44
2019-02-02T02:37:34.915Z,98065.54
2019-02-02T02:40:03.798Z,98066.86
2019-02-02T02:42:31.772Z,98068.34
2019-02-02T02:44:59.620Z,98075.04
2019-02-02T02:47:27.548Z,98068.15
2019-02-02T02:49:55.516Z,98066.84
2019-02-02T02:52:23.549Z,98060.94
2019-02-02T02:54:51.506Z,98058.50
2019-02-02T02:57:19.302Z,98048.81
2019-02-02T02:59:47.188Z,98061.47
2019-02-02T03:02:15.209Z,98057.05
2019-02-02T03:04:43.106Z,98056.42
2019-02-02T03:07:11.134Z,98052.14
2019-02-02T03:09:39.016Z,98045.77
2019-02-02T03:12:06.977Z,98048.26
2019-02-02T03:14:34.946Z,98054.97
2019-02-02T03:17:03.555Z,98054.83
2019-02-02T03:19:31.900Z,98049.58
2019-02-02T03:21:59.863Z,98055.17
2019-02-02T03:24:27.774Z,98064.50
2019-02-02T03:26:55.619Z,98062.71
2019-02-02T03:29:23.540Z,98053.34
2019-02-02T03:31:52.175Z,98054.80
2019-02-02T03:34:20.196Z,98058.72
2019-02-02T03:36:47.994Z,98054.61
2019-02-02T03:39:15.885Z,98060.63
2019-02-02T03:41:43.832Z,98064.23
2019-02-02T03:44:11.737Z,98064.49
2019-02-02T03:46:39.674Z,98071.77
2019-02-02T03:49:07.598Z,98059.91
2019-02-02T03:51:35.627Z,98066.08
2019-02-02T03:54:08.924Z,98069.77
2019-02-02T03:56:33.613Z,98067.19
2019-02-02T03:59:06.562Z,98059.91
2019-02-02T04:01:31.488Z,98058.05
2019-02-02T04:03:59.587Z,98060.61
2019-02-02T04:06:27.483Z,98059.25
2019-02-02T04:08:55.460Z,98058.70
2019-02-02T04:11:23.505Z,98059.50
2019-02-02T04:13:51.372Z,98052.38
2019-02-02T04:16:19.340Z,98056.87
2019-02-02T04:18:47.132Z,98054.41
2019-02-02T04:21:15.186Z,98051.45
2019-02-02T04:23:44.006Z,98045.83
2019-02-02T04:26:11.951Z,98053.36
2019-02-02T04:28:39.900Z,98055.56
2019-02-02T04:31:07.803Z,98058.47
2019-02-02T04:33:35.572Z,98057.27
2019-02-02T04:36:04.016Z,98058.30
2019-02-02T04:38:31.891Z,98053.59
2019-02-02T04:40:59.982Z,98065.36
2019-02-02T04:43:27.745Z,98062.73
2019-02-02T04:45:55.516Z,98052.56
2019-02-02T04:48:23.656Z,98055.48
2019-02-02T04:50:51.517Z,98055.03
2019-02-02T04:53:20.660Z,98054.59
2019-02-02T04:55:48.649Z,98062.12
2019-02-02T04:58:16.689Z,98066.09
2019-02-02T05:00:45.166Z,98060.68
2019-02-02T05:03:12.918Z,98056.41
2019-02-02T05:05:40.896Z,98054.78
2019-02-02T05:08:09.501Z,98049.70
2019-02-02T05:10:37.589Z,98041.38
2019-02-02T05:13:05.589Z,98044.83
2019-02-02T05:15:33.379Z,98047.78
2019-02-02T05:18:01.363Z,98058.33
2019-02-02T05:20:29.404Z,98066.21
2019-02-02T05:22:57.468Z,98067.88
2019-02-02T05:25:25.468Z,98060.02
2019-02-02T05:27:53.504Z,98065.27
2019-02-02T05:30:26.634Z,98063.80
2019-02-02T05:32:55.202Z,98061.01
2019-02-02T05:35:23.215Z,98060.34
2019-02-02T05:37:51.332Z,98064.92
2019-02-02T05:40:22.278Z,98080.86
2019-02-02T05:42:50.367Z,98070.98
2019-02-02T05:45:19.569Z,98068.52
2019-02-02T05:47:48.072Z,98078.70
2019-02-02T05:50:17.914Z,98087.61
2019-02-02T05:52:46.043Z,98092.91
2019-02-02T05:55:15.294Z,98098.70
2019-02-02T05:57:43.460Z,98090.31
2019-02-02T06:00:16.241Z,98090.31
2019-02-02T06:02:44.354Z,98086.72
2019-02-02T06:05:12.296Z,98082.47
2019-02-02T06:07:40.600Z,98081.84
2019-02-02T06:10:10.723Z,98079.24
2019-02-02T06:12:38.618Z,98088.09
2019-02-02T06:15:06.942Z,98081.18
2019-02-02T06:17:35.113Z,98078.55
2019-02-02T06:20:04.489Z,98083.97
2019-02-02T06:22:32.603Z,98087.75
2019-02-02T06:25:00.593Z,98091.69
2019-02-02T06:27:28.524Z,98105.66
2019-02-02T06:30:04.016Z,98112.70
2019-02-02T06:32:26.120Z,98105.15
2019-02-02T06:34:54.065Z,98109.43
2019-02-02T06:37:22.666Z,98114.86
2019-02-02T06:39:50.630Z,98115.17
2019-02-02T06:42:18.629Z,98122.55
2019-02-02T06:44:46.644Z,98121.58
2019-02-02T06:47:14.625Z,98116.97
2019-02-02T06:49:42.538Z,98117.63
2019-02-02T06:52:10.515Z,98103.68
2019-02-02T06:54:38.494Z,98103.48
2019-02-02T06:57:06.478Z,98104.00
2019-02-02T06:59:34.447Z,98105.80
2019-02-02T07:02:02.467Z,98108.42
2019-02-02T07:04:30.576Z,98114.52
2019-02-02T07:06:58.732Z,98123.20
2019-02-02T07:09:26.768Z,98122.88
2019-02-02T07:11:54.814Z,98120.24
2019-02-02T07:14:22.732Z,98131.09
2019-02-02T07:16:50.714Z,98138.33
2019-02-02T07:19:18.588Z,98134.39
2019-02-02T07:21:47.715Z,98144.27
2019-02-02T07:24:15.700Z,98116.85
2019-02-02T07:26:43.716Z,98119.95
2019-02-02T07:29:11.684Z,98129.00
2019-02-02T07:31:39.701Z,98132.77
2019-02-02T07:34:07.757Z,98135.70
2019-02-02T07:36:36.071Z,98138.95
2019-02-02T07:39:06.653Z,98147.66
2019-02-02T07:41:34.617Z,98140.09
2019-02-02T07:44:03.348Z,98139.25
2019-02-02T07:46:31.599Z,98132.67
2019-02-02T07:48:59.951Z,98130.56
2019-02-02T07:51:28.115Z,98146.46
2019-02-02T07:53:56.588Z,98140.88
2019-02-02T07:56:24.561Z,98134.83
2019-02-02T07:58:53.281Z,98135.95
2019-02-02T08:01:21.388Z,98148.42
2019-02-02T08:03:49.337Z,98146.44
2019-02-02T08:06:17.509Z,98156.95
2019-02-02T08:08:45.460Z,98163.18
2019-02-02T08:11:13.484Z,98174.53
2019-02-02T08:13:41.459Z,98169.41
2019-02-02T08:16:11.547Z,98161.84
2019-02-02T08:18:39.456Z,98161.34
2019-02-02T08:21:09.479Z,98156.87
2019-02-02T08:23:37.446Z,98151.91
2019-02-02T08:26:05.507Z,98159.78
2019-02-02T08:28:33.583Z,98163.38
2019-02-02T08:31:01.628Z,98168.94
2019-02-02T08:33:29.498Z,98165.10
2019-02-02T08:35:57.505Z,98174.45
2019-02-02T08:38:25.318Z,98171.77
2019-02-02T08:40:53.326Z,98170.73
2019-02-02T08:43:21.408Z,98172.67
2019-02-02T08:45:49.414Z,98165.42
2019-02-02T08:48:17.432Z,98163.08
2019-02-02T08:50:45.352Z,98175.21
2019-02-02T08:53:13.243Z,98185.35
2019-02-02T08:55:41.259Z,98187.09
2019-02-02T08:58:09.172Z,98193.44
2019-02-02T09:00:37.257Z,98186.79
2019-02-02T09:03:05.557Z,98184.08
2019-02-02T09:05:34.381Z,98186.96
2019-02-02T09:08:02.242Z,98184.29
2019-02-02T09:10:30.333Z,98197.66
2019-02-02T09:12:58.419Z,98197.77
2019-02-02T09:15:27.469Z,98203.13
2019-02-02T09:17:55.529Z,98196.48
2019-02-02T09:20:23.549Z,98196.35
2019-02-02T09:23:02.657Z,98184.40
2019-02-02T09:25:21.581Z,98181.34
2019-02-02T09:27:50.645Z,98190.99
2019-02-02T09:30:23.625Z,98198.32
2019-02-02T09:32:51.521Z,98203.13
2019-02-02T09:35:19.839Z,98204.02
2019-02-02T09:37:47.915Z,98216.42
2019-02-02T09:40:16.920Z,98221.07
2019-02-02T09:42:44.891Z,98230.66
2019-02-02T09:45:14.938Z,98230.30
2019-02-02T09:47:42.869Z,98240.50
2019-02-02T09:50:12.959Z,98236.61
2019-02-02T09:52:40.953Z,98241.77
2019-02-02T09:55:11.477Z,98243.34
2019-02-02T09:57:39.474Z,98242.91
2019-02-02T10:00:11.817Z,98237.91
2019-02-02T10:02:39.724Z,98231.88
2019-02-02T10:05:07.835Z,98232.87
2019-02-02T10:07:35.769Z,98230.28
2019-02-02T10:10:05.488Z,98233.64
2019-02-02T10:12:33.429Z,98233.63
2019-02-02T10:15:01.760Z,98225.37
2019-02-02T10:17:29.647Z,98224.09
2019-02-02T10:19:57.462Z,98222.52
2019-02-02T10:22:25.430Z,98231.03
2019-02-02T10:24:53.361Z,98226.22
2019-02-02T10:27:21.271Z,98236.23
2019-02-02T10:29:49.146Z,98222.28
2019-02-02T10:32:17.656Z,98211.39
2019-02-02T10:34:45.743Z,98201.95
2019-02-02T10:37:14.006Z,98196.79
2019-02-02T10:39:41.837Z,98188.98
2019-02-02T10:42:11.145Z,98186.05
2019-02-02T10:44:39.101Z,98189.53
2019-02-02T10:47:07.244Z,98187.83
2019-02-02T10:49:35.049Z,98197.03
2019-02-02T10:52:17.337Z,98196.86
2019-02-02T10:54:45.338Z,98195.03
2019-02-02T10:57:13.233Z,98190.73
2019-02-02T10:59:41.829Z,98203.48
2019-02-02T11:02:09.675Z,98201.58
2019-02-02T11:04:37.806Z,98196.98
2019-02-02T11:07:05.962Z,98192.08
2019-02-02T11:09:34.692Z,98181.36
2019-02-02T11:12:02.788Z,98187.35
2019-02-02T11:14:31.134Z,98186.75
2019-02-02T11:16:59.838Z,98190.01
2019-02-02T11:19:27.719Z,98184.70
2019-02-02T11:21:55.814Z,98175.53
2019-02-02T11:24:23.790Z,98175.11
2019-02-02T11:26:51.739Z,98182.98
2019-02-02T11:29:20.289Z,98187.98
2019-02-02T11:31:48.285Z,98189.16
2019-02-02T11:34:16.215Z,98189.16
2019-02-02T11:36:44.293Z,98179.84
2019-02-02T11:39:12.079Z,98172.64
2019-02-02T11:41:40.132Z,98177.53
2019-02-02T11:44:08.088Z,98177.00
2019-02-02T11:46:36.083Z,98166.28
2019-02-02T11:49:04.123Z,98166.28
2019-02-02T11:51:32.207Z,98177.74
2019-02-02T11:54:00.000Z,98170.63
2019-02-02T11:56:27.909Z,98161.50
2019-02-02T11:58:55.872Z,98177.16
2019-02-02T12:01:23.849Z,98174.70
2019-02-02T12:03:51.739Z,98184.31
2019-02-02T12:06:20.331Z,98171.68
2019-02-02T12:08:49.324Z,98178.57
2019-02-02T12:11:17.702Z,98178.57
2019-02-02T12:13:45.534Z,98167.61
2019-02-02T12:16:13.421Z,98165.80
2019-02-02T12:18:41.327Z,98165.80
2019-02-02T12:21:09.215Z,98155.18
2019-02-02T12:23:37.126Z,98155.18
2019-02-02T12:26:05.174Z,98158.27
2019-02-02T12:28:33.038Z,98156.33
2019-02-02T12:31:01.685Z,98157.66
2019-02-02T12:33:29.669Z,98164.72
2019-02-02T12:35:57.566Z,98170.16
2019-02-02T12:38:25.447Z,98167.89
2019-02-02T12:40:53.283Z,98178.30
2019-02-02T12:43:21.290Z,98177.92
2019-02-02T12:45:52.112Z,98176.97
2019-02-02T12:48:20.249Z,98191.88
2019-02-02T12:50:48.306Z,98191.88
2019-02-02T12:53:16.482Z,98214.34
2019-02-02T12:55:44.393Z,98228.64
2019-02-02T12:58:12.870Z,98219.16
2019-02-02T13:00:44.032Z,98232.25
2019-02-02T13:03:10.959Z,98241.74
2019-02-02T13:05:39.343Z,98237.46
2019-02-02T13:08:07.739Z,98237.46
2019-02-02T13:10:35.948Z,98235.75
2019-02-02T13:13:04.146Z,98227.67
2019-02-02T13:15:32.188Z,98246.06
2019-02-02T13:18:00.065Z,98249.14
2019-02-02T13:20:28.241Z,98262.02
2019-02-02T13:22:56.216Z,98251.29
2019-02-02T13:25:24.856Z,98255.30
2019-02-02T13:27:52.894Z,98255.30
2019-02-02T13:30:23.732Z,98251.20
2019-02-02T13:32:51.858Z,98239.38
2019-02-02T13:35:19.946Z,98246.55
2019-02-02T13:37:48.059Z,98235.31
2019-02-02T13:40:17.510Z,98256.55
2019-02-02T13:42:45.445Z,98256.55
2019-02-02T13:45:14.302Z,98249.98
2019-02-02T13:47:42.314Z,98245.42
2019-02-02T13:50:12.524Z,98241.84
2019-02-02T13:52:40.536Z,98241.84
2019-02-02T13:55:08.665Z,98255.22
2019-02-02T13:57:36.717Z,98250.22
2019-02-02T14:00:06.913Z,98250.22
2019-02-02T14:02:34.866Z,98257.55
2019-02-02T14:05:03.521Z,98256.63
2019-02-02T14:07:31.525Z,98271.95
2019-02-02T14:09:59.332Z,98271.95
2019-02-02T14:12:27.422Z,98261.95
2019-02-02T14:14:55.223Z,98263.69
2019-02-02T14:17:23.229Z,98271.84
2019-02-02T14:19:51.192Z,98282.23
2019-02-02T14:22:20.238Z,98282.23
2019-02-02T14:24:48.770Z,98273.28
2019-02-02T14:27:16.628Z,98286.73
2019-02-02T14:29:44.618Z,98304.80
2019-02-02T14:32:13.415Z,98314.38
2019-02-02T14:34:41.401Z,98314.38
2019-02-02T14:37:09.365Z,98335.72
2019-02-02T14:39:37.260Z,98332.45
2019-02-02T14:42:05.307Z,98331.73
2019-02-02T14:44:34.026Z,98331.73
2019-02-02T14:47:02.053Z,98328.98
2019-02-02T14:49:30.362Z,98328.98
2019-02-02T14:51:58.298Z,98312.87
2019-02-02T14:54:26.126Z,98320.11
2019-02-02T14:56:54.807Z,98313.68
2019-02-02T14:59:22.565Z,98313.68
2019-02-02T15:01:53.204Z,98341.95
2019-02-02T15:04:21.111Z,98336.33
2019-02-02T15:06:48.934Z,98348.36
2019-02-02T15:09:16.913Z,98349.59
2019-02-02T15:11:44.780Z,98349.59
2019-02-02T15:14:12.677Z,98360.28
2019-02-02T15:16:41.954Z,98360.28
2019-02-02T15:19:09.869Z,98363.46
2019-02-02T15:21:37.860Z,98366.92
2019-02-02T15:24:06.060Z,98366.92
2019-02-02T15:26:33.955Z,98362.55
2019-02-02T15:29:01.996Z,98351.11
2019-02-02T15:31:29.935Z,98356.59
2019-02-02T15:33:57.941Z,98356.59
2019-02-02T15:36:25.862Z,98350.25
2019-02-02T15:38:53.944Z,98354.91
2019-02-02T15:41:22.173Z,98354.91
2019-02-02T15:43:50.182Z,98352.47
2019-02-02T15:46:18.020Z,98368.12
2019-02-02T15:48:45.906Z,98368.12
2019-02-02T15:51:13.882Z,98371.70
2019-02-02T15:53:41.778Z,98375.36
2019-02-02T15:56:10.818Z,98387.69
2019-02-02T15:58:38.788Z,98387.69
2019-02-02T16:01:06.879Z,98405.94
2019-02-02T16:03:49.603Z,98405.94
2019-02-02T16:06:14.788Z,98420.25
2019-02-02T16:08:42.863Z,98420.25
2019-02-02T16:11:10.809Z,98429.21
2019-02-02T16:13:38.594Z,98429.21
2019-02-02T16:16:06.599Z,98458.59
2019-02-02T16:18:34.568Z,98458.59
2019-02-02T16:21:02.637Z,98477.94
2019-02-02T16:23:30.530Z,98477.94
2019-02-02T16:25:58.623Z,98481.95
2019-02-02T16:28:26.553Z,98485.19
2019-02-02T16:30:54.442Z,98479.33
2019-02-02T16:33:22.642Z,98496.39
2019-02-02T16:35:50.705Z,98495.39
2019-02-02T16:38:18.763Z,98500.70
2019-02-02T16:40:46.656Z,98503.73
2019-02-02T16:43:15.767Z,98502.23
2019-02-02T16:45:43.683Z,98510.88
2019-02-02T16:48:11.712Z,98510.88
2019-02-02T16:50:40.197Z,98524.23
2019-02-02T16:53:08.199Z,98524.23
2019-02-02T16:55:36.272Z,98545.90
2019-02-02T16:58:05.845Z,98552.46
2019-02-02T17:00:34.353Z,98568.91
2019-02-02T17:03:02.537Z,98568.91
2019-02-02T17:05:39.092Z,98568.45
2019-02-02T17:08:07.156Z,98578.45
2019-02-02T17:10:36.422Z,98583.17
2019-02-02T17:13:05.641Z,98612.53
2019-02-02T17:15:34.195Z,98618.30
2019-02-02T17:18:02.095Z,98622.73
2019-02-02T17:20:37.840Z,98631.08
2019-02-02T17:23:05.826Z,98623.27
2019-02-02T17:25:33.978Z,98623.27
2019-02-02T17:28:02.076Z,98638.77
2019-02-02T17:30:30.032Z,98638.77
2019-02-02T17:33:00.252Z,98640.45
2019-02-02T17:35:28.216Z,98652.34
2019-02-02T17:37:56.077Z,98643.33
2019-02-02T17:40:25.682Z,98657.70
2019-02-02T17:42:53.859Z,98664.18
2019-02-02T17:45:21.964Z,98668.54
2019-02-02T17:47:50.469Z,98663.73
2019-02-02T17:50:19.835Z,98674.25
2019-02-02T17:52:48.886Z,98679.53
2019-02-02T17:55:17.620Z,98674.77
2019-02-02T17:57:45.769Z,98680.08
2019-02-02T18:00:16.077Z,98681.91
2019-02-02T18:02:44.010Z,98682.59
2019-02-02T18:05:12.612Z,98684.91
2019-02-02T18:07:40.413Z,98707.52
2019-02-02T18:10:10.759Z,98707.52
2019-02-02T18:12:38.623Z,98714.12
2019-02-02T18:15:08.448Z,98716.09
2019-02-02T18:17:36.311Z,98723.20
2019-02-02T18:20:06.953Z,98737.21
2019-02-02T18:22:34.934Z,98731.28
2019-02-02T18:25:03.481Z,98729.96
2019-02-02T18:27:32.208Z,98727.00
2019-02-02T18:30:00.383Z,98725.30
2019-02-02T18:32:28.310Z,98722.47
2019-02-02T18:34:56.390Z,98729.45
2019-02-02T18:37:24.651Z,98721.13
2019-02-02T18:39:52.598Z,98726.06
2019-02-02T18:42:21.310Z,98732.45
2019-02-02T18:44:49.869Z,98738.16
2019-02-02T18:47:18.717Z,98738.16
2019-02-02T18:49:46.758Z,98738.68
2019-02-02T18:52:16.459Z,98743.66
2019-02-02T18:54:44.456Z,98743.44
2019-02-02T18:57:12.424Z,98743.44
2019-02-02T18:59:40.203Z,98760.32
2019-02-02T19:02:08.201Z,98764.25
2019-02-02T19:04:36.283Z,98767.77
2019-02-02T19:07:04.303Z,98767.73
2019-02-02T19:09:32.431Z,98767.73
2019-02-02T19:12:00.746Z,98777.00
2019-02-02T19:14:28.733Z,98781.39
2019-02-02T19:17:01.224Z,98794.37
2019-02-02T19:19:26.416Z,98806.52
2019-02-02T19:21:54.402Z,98806.52
2019-02-02T19:24:22.238Z,98811.41
2019-02-02T19:26:50.029Z,98821.95
2019-02-02T19:29:18.045Z,98829.02
2019-02-02T19:31:46.380Z,98834.06
2019-02-02T19:34:18.181Z,98840.09
2019-02-02T19:36:45.544Z,98843.80
2019-02-02T19:39:13.518Z,98846.83
2019-02-02T19:41:41.866Z,98842.60
2019-02-02T19:44:15.633Z,98848.27
2019-02-02T19:46:43.605Z,98862.66
2019-02-02T19:49:12.051Z,98871.13
2019-02-02T19:51:39.918Z,98880.05
2019-02-02T19:54:07.886Z,98884.01
2019-02-02T19:56:35.885Z,98882.37
2019-02-02T19:59:04.069Z,98880.87
2019-02-02T20:01:31.996Z,98887.99
2019-02-02T20:04:00.072Z,98898.52
2019-02-02T20:06:28.209Z,98901.66
2019-02-02T20:08:56.113Z,98916.97
2019-02-02T20:11:24.079Z,98933.05
2019-02-02T20:13:52.002Z,98936.69
2019-02-02T20:16:19.887Z,98936.02
2019-02-02T20:18:47.855Z,98945.88
2019-02-02T20:21:16.054Z,98944.88
2019-02-02T20:23:44.215Z,98944.40
2019-02-02T20:26:12.287Z,98950.47
2019-02-02T20:28:42.382Z,98948.81
2019-02-02T20:31:10.264Z,98949.47
2019-02-02T20:33:38.200Z,98956.37
2019-02-02T20:36:06.456Z,98963.45
2019-02-02T20:38:34.751Z,98963.44
2019-02-02T20:41:02.780Z,98963.91
2019-02-02T20:43:30.982Z,98967.84
2019-02-02T20:46:07.881Z,98965.33
2019-02-02T20:48:35.879Z,98976.35
2019-02-02T20:51:04.111Z,98992.11
2019-02-02T20:53:32.330Z,98997.69
2019-02-02T20:56:00.572Z,98987.45
2019-02-02T20:58:28.423Z,98992.70
2019-02-02T21:00:56.458Z,99005.66
2019-02-02T21:03:24.499Z,99006.16
2019-02-02T21:05:52.853Z,99010.42
2019-02-02T21:08:21.066Z,99018.13
2019-02-02T21:10:49.143Z,99010.39
2019-02-02T21:13:17.017Z,99014.66
2019-02-02T21:15:45.035Z,99009.53
2019-02-02T21:18:13.347Z,99010.34
2019-02-02T21:20:42.424Z,99015.41
2019-02-02T21:23:10.634Z,99027.42
2019-02-02T21:25:38.971Z,99024.42
2019-02-02T21:28:07.396Z,99016.84
2019-02-02T21:30:35.780Z,99019.91
2019-02-02T21:33:04.871Z,99026.66
2019-02-02T21:35:32.795Z,99029.62
2019-02-02T21:38:00.866Z,99033.68
2019-02-02T21:40:30.661Z,99039.08
2019-02-02T21:42:58.574Z,99042.66
2019-02-02T21:45:26.498Z,99050.67
2019-02-02T21:48:03.367Z,99058.66
2019-02-02T21:50:31.326Z,99074.37
2019-02-02T21:52:59.319Z,99064.28
2019-02-02T21:55:28.920Z,99067.39
2019-02-02T21:57:56.909Z,99065.03
2019-02-02T22:00:30.589Z,99059.60
2019-02-02T22:02:58.614Z,99058.78
2019-02-02T22:05:26.510Z,99050.36
2019-02-02T22:07:54.563Z,99053.07
2019-02-02T22:10:22.531Z,99057.84
2019-02-02T22:12:52.768Z,99071.33
2019-02-02T22:15:21.836Z,99076.30
2019-02-02T22:17:49.926Z,99083.88
2019-02-02T22:20:18.553Z,99084.94
2019-02-02T22:22:47.437Z,99094.85
2019-02-02T22:25:18.314Z,99105.47
2019-02-02T22:27:46.300Z,99102.05
2019-02-02T22:30:16.847Z,99089.33
2019-02-02T22:32:44.861Z,99095.62
2019-02-02T22:35:12.865Z,99100.79
2019-02-02T22:37:41.253Z,99113.80
2019-02-02T22:40:12.127Z,99112.23
2019-02-02T22:42:40.253Z,99125.79
2019-02-02T22:45:11.610Z,99125.52
2019-02-02T22:47:39.680Z,99123.05
2019-02-02T22:50:10.970Z,99130.02
2019-02-02T22:52:39.563Z,99136.50
2019-02-02T22:55:08.547Z,99132.16
2019-02-02T22:57:36.852Z,99129.28
2019-02-02T23:00:24.003Z,99135.84
2019-02-02T23:02:52.025Z,99139.45
2019-02-02T23:05:52.451Z,99140.52
2019-02-02T23:08:35.680Z,99133.06
2019-02-02T23:11:25.884Z,99131.87
2019-02-02T23:14:25.665Z,99141.89
2019-02-02T23:16:53.667Z,99138.87
2019-02-02T23:19:21.677Z,99149.78
2019-02-02T23:21:49.572Z,99144.19
2019-02-02T23:24:17.562Z,99145.84
2019-02-02T23:26:45.377Z,99150.04
2019-02-02T23:29:13.358Z,99146.26
2019-02-02T23:31:41.374Z,99149.44
2019-02-02T23:34:10.659Z,99146.47
2019-02-02T23:36:50.534Z,99154.96
2019-02-02T23:39:09.107Z,99162.71
2019-02-02T23:41:38.082Z,99161.39
2019-02-02T23:44:05.928Z,99161.74
2019-02-02T23:46:34.003Z,99172.08
2019-02-02T23:49:02.030Z,99186.38
2019-02-02T23:51:29.910Z,99182.64
2019-02-02T23:53:57.772Z,99184.11
2019-02-02T23:56:27.800Z,99195.29
2019-02-02T23:58:55.763Z,99194.67
